Time;durP1;ratioP1;P1;durP2;ratioP2;P2;SDS_P1;SDS_P2;PMS_P1;PMS_P2;Temp;Humidity;BMP_temperature;BMP_pressure;BME280_temperature;BME280_humidity;BME280_pressure;Samples;Min_cycle;Max_cycle;Signal;HPM_P1;HPM_P2
2022/01/05 00:00:29;;;;;;;11.15;2.17;;;2.50;99.90;;;;;;5055788;28;20048;-73
2022/01/05 00:02:55;;;;;;;12.98;3.05;;;2.50;99.90;;;;;;5056671;28;20048;-73
2022/01/05 00:05:21;;;;;;;12.48;2.25;;;2.50;99.90;;;;;;5056425;28;20076;-73
2022/01/05 00:07:46;;;;;;;18.05;2.45;;;2.50;99.90;;;;;;5056338;28;20037;-74
2022/01/05 00:10:12;;;;;;;14.45;2.13;;;2.50;99.90;;;;;;5055983;28;20371;-73
2022/01/05 00:12:38;;;;;;;12.15;2.05;;;2.40;99.90;;;;;;5056216;28;20028;-73
2022/01/05 00:15:04;;;;;;;14.55;2.13;;;2.40;99.90;;;;;;5055903;28;20041;-73
2022/01/05 00:17:30;;;;;;;12.60;1.90;;;2.40;99.90;;;;;;5055946;28;20052;-75
2022/01/05 00:19:56;;;;;;;14.70;2.42;;;2.40;99.90;;;;;;5056042;28;20371;-73
2022/01/05 00:22:22;;;;;;;11.70;1.90;;;2.40;99.90;;;;;;5055717;28;20105;-73
2022/01/05 00:24:48;;;;;;;16.23;2.45;;;2.40;99.90;;;;;;5055232;28;20048;-73
2022/01/05 00:27:13;;;;;;;15.52;2.10;;;2.40;99.90;;;;;;5055150;28;20037;-74
2022/01/05 00:29:39;;;;;;;8.57;2.00;;;2.40;99.90;;;;;;5054971;28;20044;-73
2022/01/05 00:32:05;;;;;;;12.52;2.33;;;2.40;99.90;;;;;;5055574;28;20064;-72
2022/01/05 00:34:31;;;;;;;13.80;1.95;;;2.40;99.90;;;;;;5039299;28;20048;-73
2022/01/05 00:36:57;;;;;;;16.85;2.13;;;2.40;99.90;;;;;;5055587;28;20043;-72
2022/01/05 00:39:22;;;;;;;10.48;1.65;;;2.40;99.90;;;;;;5056140;28;20162;-74
2022/01/05 00:41:48;;;;;;;12.20;1.92;;;2.40;99.90;;;;;;5055895;28;20040;-73
2022/01/05 00:44:13;;;;;;;13.05;2.03;;;2.40;99.90;;;;;;5055695;28;20071;-73
2022/01/05 00:46:39;;;;;;;11.10;1.65;;;2.50;99.90;;;;;;5038703;28;20079;-74
2022/01/05 00:49:05;;;;;;;8.20;1.50;;;2.50;99.90;;;;;;5055887;28;20051;-72
2022/01/05 00:51:30;;;;;;;10.50;1.67;;;2.50;99.90;;;;;;5055486;28;20463;-72
2022/01/05 00:53:56;;;;;;;10.63;2.10;;;2.50;99.90;;;;;;5055841;28;20032;-72
2022/01/05 00:56:22;;;;;;;10.40;1.70;;;2.60;99.90;;;;;;5051703;28;20036;-72
2022/01/05 00:58:47;;;;;;;11.02;1.40;;;2.50;99.90;;;;;;5035397;28;20087;-72
2022/01/05 01:01:13;;;;;;;8.30;1.40;;;2.50;99.90;;;;;;5035283;28;20085;-75
2022/01/05 01:03:42;;;;;;;14.45;1.67;;;2.50;99.90;;;;;;5036197;28;20132;-73
2022/01/05 01:06:07;;;;;;;12.02;1.80;;;2.50;99.90;;;;;;5037245;28;20037;-72
2022/01/05 01:08:33;;;;;;;11.88;1.70;;;2.50;99.90;;;;;;5039600;28;20124;-72
2022/01/05 01:10:58;;;;;;;6.70;1.45;;;2.50;99.90;;;;;;5039428;28;20063;-73
2022/01/05 01:13:24;;;;;;;7.50;1.63;;;2.50;99.90;;;;;;5039578;28;20403;-74
2022/01/05 01:15:51;;;;;;;10.00;1.70;;;2.50;99.90;;;;;;5039138;28;20075;-73
2022/01/05 01:18:18;;;;;;;11.07;1.73;;;2.50;99.90;;;;;;5022872;28;20467;-73
2022/01/05 01:20:47;;;;;;;13.35;1.90;;;2.50;99.90;;;;;;5039526;28;20040;-73
2022/01/05 01:23:13;;;;;;;9.70;1.60;;;2.40;99.90;;;;;;5048664;28;20049;-73
2022/01/05 01:25:39;;;;;;;11.95;1.65;;;2.40;99.90;;;;;;5055450;28;20201;-73
2022/01/05 01:28:06;;;;;;;11.68;1.55;;;2.40;99.90;;;;;;5022364;28;20086;-75
2022/01/05 01:30:32;;;;;;;13.55;1.77;;;2.40;99.90;;;;;;5055589;28;20052;-72
2022/01/05 01:33:02;;;;;;;12.68;2.40;;;2.40;99.90;;;;;;5039388;28;20037;-73
2022/01/05 01:35:28;;;;;;;9.93;1.90;;;2.30;99.90;;;;;;5039017;28;20467;-75
2022/01/05 01:37:54;;;;;;;7.35;1.85;;;2.30;99.90;;;;;;5039312;28;20182;-72
2022/01/05 01:40:21;;;;;;;12.27;1.80;;;2.40;99.90;;;;;;5039072;28;20036;-73
2022/01/05 01:42:47;;;;;;;11.30;2.50;;;2.30;99.90;;;;;;5038683;28;20083;-73
2022/01/05 01:45:13;;;;;;;11.75;1.95;;;2.30;99.90;;;;;;5038685;28;20045;-73
2022/01/05 01:47:40;;;;;;;16.92;2.40;;;2.30;99.90;;;;;;5038925;28;20044;-73
2022/01/05 01:50:06;;;;;;;9.57;1.60;;;2.30;99.90;;;;;;5039210;28;20048;-72
2022/01/05 01:52:32;;;;;;;11.13;1.85;;;2.30;99.90;;;;;;5042556;28;20041;-74
2022/01/05 01:54:58;;;;;;;11.65;2.03;;;2.30;99.90;;;;;;5058757;28;20044;-73
2022/01/05 01:57:25;;;;;;;10.70;1.70;;;2.30;99.90;;;;;;5058417;28;20041;-72
2022/01/05 01:59:51;;;;;;;14.35;2.08;;;2.30;99.90;;;;;;5057510;28;20044;-73
2022/01/05 02:02:17;;;;;;;15.90;2.22;;;2.30;99.90;;;;;;5057872;28;20093;-76
2022/01/05 02:04:44;;;;;;;13.55;2.00;;;2.20;99.90;;;;;;5057579;28;20382;-72
2022/01/05 02:07:10;;;;;;;16.33;2.60;;;2.20;99.90;;;;;;5057040;28;20036;-72
2022/01/05 02:09:37;;;;;;;10.35;2.08;;;2.30;99.90;;;;;;5057001;28;20045;-75
2022/01/05 02:12:05;;;;;;;10.23;2.30;;;2.20;99.90;;;;;;5053109;28;20069;-73
2022/01/05 02:14:31;;;;;;;16.48;2.30;;;2.20;99.90;;;;;;5053323;28;20040;-73
2022/01/05 02:16:58;;;;;;;14.75;2.10;;;2.20;99.90;;;;;;5053254;28;20043;-74
2022/01/05 02:19:24;;;;;;;14.10;2.38;;;2.20;99.90;;;;;;5036758;28;20045;-73
2022/01/05 02:21:49;;;;;;;11.93;2.03;;;2.20;99.90;;;;;;5037437;28;20037;-75
2022/01/05 02:24:15;;;;;;;11.48;2.00;;;2.20;99.90;;;;;;5036628;28;20391;-73
2022/01/05 02:26:42;;;;;;;22.02;2.28;;;2.20;99.90;;;;;;5020253;28;20436;-73
2022/01/05 02:29:07;;;;;;;13.27;1.95;;;2.20;99.90;;;;;;5036555;28;20513;-73
2022/01/05 02:31:34;;;;;;;15.00;2.40;;;2.10;99.90;;;;;;5037565;28;20033;-75
2022/01/05 02:34:00;;;;;;;18.55;2.70;;;2.10;99.90;;;;;;5037038;28;20041;-73
2022/01/05 02:36:26;;;;;;;13.75;2.10;;;2.10;99.90;;;;;;5037090;28;20037;-74
2022/01/05 02:38:53;;;;;;;13.85;2.33;;;2.10;99.90;;;;;;5036896;28;20390;-73
2022/01/05 02:41:20;;;;;;;10.40;2.38;;;2.10;99.90;;;;;;5036473;28;20037;-73
2022/01/05 02:43:46;;;;;;;13.52;1.85;;;2.10;99.90;;;;;;5046080;28;20639;-73
2022/01/05 02:46:16;;;;;;;11.77;2.47;;;2.10;99.90;;;;;;5056194;28;20127;-73
2022/01/05 02:48:42;;;;;;;12.93;2.05;;;2.20;99.90;;;;;;5056326;28;20062;-74
2022/01/05 02:51:10;;;;;;;12.50;2.58;;;2.20;99.90;;;;;;5056378;28;20044;-74
2022/01/05 02:53:35;;;;;;;16.20;2.00;;;2.20;99.90;;;;;;5039858;28;20049;-75
2022/01/05 02:56:01;;;;;;;14.25;2.15;;;2.20;99.90;;;;;;5039305;28;20055;-72
2022/01/05 02:58:27;;;;;;;9.75;1.73;;;2.20;99.90;;;;;;4997739;28;1104232;-73
2022/01/05 03:00:53;;;;;;;7.93;2.00;;;2.30;99.90;;;;;;5037559;28;20044;-73
2022/01/05 03:03:19;;;;;;;11.40;1.80;;;2.30;99.90;;;;;;5054356;28;20041;-73
2022/01/05 03:05:44;;;;;;;13.25;2.03;;;2.30;99.90;;;;;;5053825;28;20044;-73
2022/01/05 03:08:10;;;;;;;14.20;1.90;;;2.30;99.90;;;;;;5053950;28;20080;-73
2022/01/05 03:10:36;;;;;;;16.45;2.40;;;2.40;99.90;;;;;;5035450;28;20127;-72
2022/01/05 03:13:02;;;;;;;14.27;2.08;;;2.40;99.90;;;;;;5057816;28;20102;-73
2022/01/05 03:15:28;;;;;;;9.90;2.00;;;2.40;99.90;;;;;;5057429;28;20084;-72
2022/01/05 03:17:54;;;;;;;8.57;1.90;;;2.40;99.90;;;;;;5057277;28;20062;-72
2022/01/05 03:20:20;;;;;;;15.02;2.65;;;2.50;99.90;;;;;;5057170;28;20412;-73
2022/01/05 03:22:47;;;;;;;10.52;2.15;;;2.50;99.90;;;;;;5057251;28;20032;-73
2022/01/05 03:25:16;;;;;;;11.50;2.22;;;2.50;99.90;;;;;;5039868;28;20056;-73
2022/01/05 03:27:46;;;;;;;11.77;2.30;;;2.50;99.90;;;;;;5056589;28;20127;-73
2022/01/05 03:30:16;;;;;;;11.43;2.20;;;2.50;99.90;;;;;;5056506;28;20544;-72
2022/01/05 03:33:04;;;;;;;11.95;2.72;;;2.50;99.90;;;;;;5056937;28;20046;-73
2022/01/05 03:35:36;;;;;;;14.82;2.60;;;2.50;99.90;;;;;;5056392;28;20097;-72
2022/01/05 03:38:03;;;;;;;16.25;2.50;;;2.60;99.90;;;;;;5056999;28;20043;-73
2022/01/05 03:40:30;;;;;;;14.82;2.33;;;2.60;99.90;;;;;;5055349;28;20094;-73
2022/01/05 03:42:56;;;;;;;17.90;2.80;;;2.60;99.90;;;;;;5056439;28;20048;-75
2022/01/05 03:45:22;;;;;;;16.55;2.17;;;2.60;99.90;;;;;;5056404;28;20089;-73
2022/01/05 03:47:48;;;;;;;13.90;2.83;;;2.60;99.90;;;;;;5056274;28;20034;-73
2022/01/05 03:50:14;;;;;;;17.27;2.20;;;2.60;99.90;;;;;;5055983;28;20453;-72
2022/01/05 03:52:39;;;;;;;18.33;3.00;;;2.50;99.90;;;;;;5056712;28;20075;-72
2022/01/05 03:55:06;;;;;;;13.52;2.50;;;2.50;99.90;;;;;;5056387;28;20072;-75
2022/01/05 03:57:32;;;;;;;15.68;2.20;;;2.40;99.90;;;;;;5056426;28;20082;-73
2022/01/05 03:59:58;;;;;;;15.15;2.50;;;2.40;99.90;;;;;;5039780;28;20045;-73
2022/01/05 04:02:25;;;;;;;10.02;2.22;;;2.40;99.90;;;;;;5055764;28;20036;-71
2022/01/05 04:04:50;;;;;;;15.65;2.95;;;2.40;99.90;;;;;;5055548;28;20040;-74
2022/01/05 04:07:16;;;;;;;9.88;2.20;;;2.40;99.90;;;;;;5056009;28;20432;-74
2022/01/05 04:09:42;;;;;;;16.52;2.67;;;2.30;99.90;;;;;;5056033;28;20470;-72
2022/01/05 04:12:09;;;;;;;14.70;2.30;;;2.30;99.90;;;;;;5055644;28;20446;-73
2022/01/05 04:14:34;;;;;;;11.57;2.22;;;2.30;99.90;;;;;;5052313;28;20048;-73
2022/01/05 04:17:00;;;;;;;16.17;2.33;;;2.30;99.90;;;;;;5019631;28;20044;-73
2022/01/05 04:19:25;;;;;;;14.18;2.30;;;2.40;99.90;;;;;;5052313;28;20383;-75
2022/01/05 04:21:51;;;;;;;14.75;2.28;;;2.40;99.90;;;;;;5036505;28;20041;-76
2022/01/05 04:24:17;;;;;;;15.50;2.33;;;2.40;99.90;;;;;;5052332;28;20052;-73
2022/01/05 04:26:43;;;;;;;12.68;2.30;;;2.40;99.90;;;;;;5036028;28;20048;-73
2022/01/05 04:29:08;;;;;;;13.77;2.80;;;2.50;99.90;;;;;;5052205;28;20037;-73
2022/01/05 04:31:34;;;;;;;21.42;2.97;;;2.50;99.90;;;;;;5044645;28;20032;-73
2022/01/05 04:34:00;;;;;;;14.13;2.53;;;2.50;99.90;;;;;;5051547;28;20049;-73
2022/01/05 04:36:26;;;;;;;11.35;2.35;;;2.50;99.90;;;;;;5036424;28;20037;-73
2022/01/05 04:38:52;;;;;;;14.00;2.88;;;2.50;99.90;;;;;;5035934;28;20409;-74
2022/01/05 04:41:18;;;;;;;18.63;2.97;;;2.40;99.90;;;;;;5035629;28;20471;-73
2022/01/05 04:43:44;;;;;;;16.27;2.65;;;2.40;99.90;;;;;;5035686;28;20052;-73
2022/01/05 04:46:09;;;;;;;12.75;2.92;;;2.50;99.90;;;;;;5035724;28;20045;-73
2022/01/05 04:48:35;;;;;;;21.25;2.83;;;2.50;99.90;;;;;;5035031;28;20384;-73
2022/01/05 04:51:01;;;;;;;13.73;2.28;;;2.50;99.90;;;;;;5035468;28;20052;-73
2022/01/05 04:53:26;;;;;;;14.95;2.83;;;2.50;99.90;;;;;;5035729;28;20051;-75
2022/01/05 04:55:53;;;;;;;13.45;2.40;;;2.50;99.90;;;;;;5035605;28;20033;-72
2022/01/05 04:58:19;;;;;;;21.20;3.00;;;2.50;99.90;;;;;;5035528;28;20049;-73
2022/01/05 05:00:45;;;;;;;15.20;3.03;;;2.50;99.90;;;;;;5053931;28;20102;-73
2022/01/05 05:03:12;;;;;;;13.60;3.20;;;2.50;99.90;;;;;;5055175;28;20499;-74
2022/01/05 05:05:38;;;;;;;18.85;2.97;;;2.50;99.90;;;;;;5055418;28;20453;-73
2022/01/05 05:08:04;;;;;;;19.65;2.78;;;2.50;99.90;;;;;;5038883;28;20123;-71
2022/01/05 05:10:29;;;;;;;16.98;2.50;;;2.50;99.90;;;;;;5055502;28;20044;-72
2022/01/05 05:12:55;;;;;;;15.50;3.30;;;2.50;99.90;;;;;;5055365;28;20044;-74
2022/01/05 05:15:21;;;;;;;21.50;3.33;;;2.50;99.90;;;;;;5038825;28;20399;-73
2022/01/05 05:17:46;;;;;;;16.17;2.80;;;2.50;99.90;;;;;;5055043;28;20038;-73
2022/01/05 05:20:12;;;;;;;15.55;2.72;;;2.50;99.90;;;;;;5038679;28;20437;-73
2022/01/05 05:22:38;;;;;;;17.25;2.67;;;2.50;99.90;;;;;;5038446;28;20478;-73
2022/01/05 05:25:04;;;;;;;12.05;2.33;;;2.50;99.90;;;;;;5055552;28;20086;-73
2022/01/05 05:27:30;;;;;;;17.40;2.75;;;2.60;99.90;;;;;;5055312;28;20047;-73
2022/01/05 05:29:56;;;;;;;20.75;3.40;;;2.60;99.90;;;;;;5053816;28;20398;-71
2022/01/05 05:32:22;;;;;;;23.25;3.78;;;2.60;99.90;;;;;;5038191;28;20127;-73
2022/01/05 05:34:47;;;;;;;15.40;2.83;;;2.70;99.90;;;;;;5055493;28;20037;-73
2022/01/05 05:37:15;;;;;;;17.45;2.60;;;2.80;99.90;;;;;;5055390;28;20043;-75
2022/01/05 05:39:41;;;;;;;17.70;2.38;;;2.80;99.90;;;;;;5055032;28;20495;-72
2022/01/05 05:42:07;;;;;;;12.98;2.75;;;2.90;99.90;;;;;;5055315;28;20040;-73
2022/01/05 05:44:33;;;;;;;15.13;2.78;;;3.00;99.90;;;;;;5055010;28;20044;-72
2022/01/05 05:46:59;;;;;;;15.13;2.95;;;3.00;99.90;;;;;;5054779;28;20045;-73
2022/01/05 05:49:24;;;;;;;15.30;2.45;;;3.00;99.90;;;;;;5054551;28;20036;-72
2022/01/05 05:51:50;;;;;;;18.17;3.10;;;3.10;99.90;;;;;;5039514;28;20036;-75
2022/01/05 05:54:16;;;;;;;18.42;3.38;;;3.20;99.90;;;;;;5057683;28;20043;-74
2022/01/05 05:56:41;;;;;;;17.17;3.55;;;3.20;99.90;;;;;;5058781;28;20033;-73
2022/01/05 05:59:07;;;;;;;14.88;3.25;;;3.10;99.90;;;;;;5058367;28;20051;-74
2022/01/05 06:01:33;;;;;;;18.27;3.22;;;3.10;99.90;;;;;;5058199;28;20048;-74
2022/01/05 06:03:58;;;;;;;19.13;3.22;;;3.10;99.90;;;;;;5058794;28;20093;-73
2022/01/05 06:06:24;;;;;;;19.08;3.22;;;3.10;99.90;;;;;;5042022;28;20128;-73
2022/01/05 06:08:50;;;;;;;21.13;3.35;;;3.00;99.90;;;;;;5058225;28;20374;-73
2022/01/05 06:11:15;;;;;;;15.55;2.88;;;3.10;99.90;;;;;;5058476;28;20382;-72
2022/01/05 06:13:41;;;;;;;19.48;3.05;;;3.00;99.90;;;;;;5058353;28;20043;-73
2022/01/05 06:16:07;;;;;;;18.92;3.30;;;3.10;99.90;;;;;;5058176;28;20447;-73
2022/01/05 06:18:32;;;;;;;19.30;3.33;;;3.10;99.90;;;;;;5058209;28;20052;-82
2022/01/05 06:20:58;;;;;;;18.73;3.20;;;3.20;99.90;;;;;;5041375;28;20040;-70
2022/01/05 06:23:24;;;;;;;20.48;2.67;;;3.30;99.90;;;;;;5058706;28;20079;-71
2022/01/05 06:25:49;;;;;;;12.82;2.90;;;3.40;99.90;;;;;;5057735;28;20036;-70
2022/01/05 06:28:15;;;;;;;18.83;2.90;;;3.40;99.90;;;;;;5057949;28;20470;-70
2022/01/05 06:30:41;;;;;;;19.85;3.00;;;3.50;99.90;;;;;;5057946;28;20045;-73
2022/01/05 06:33:07;;;;;;;25.90;3.72;;;3.60;99.90;;;;;;5057711;28;20055;-72
2022/01/05 06:35:34;;;;;;;15.85;2.47;;;3.70;99.90;;;;;;5057837;28;20047;-74
2022/01/05 06:38:00;;;;;;;16.70;3.10;;;3.70;99.90;;;;;;5041445;28;20044;-71
2022/01/05 06:40:26;;;;;;;15.75;2.75;;;3.80;99.90;;;;;;5057960;28;20055;-72
2022/01/05 06:42:52;;;;;;;16.83;2.60;;;3.80;99.90;;;;;;5036380;28;20044;-75
2022/01/05 06:45:17;;;;;;;14.57;2.42;;;3.90;99.90;;;;;;5037688;28;20048;-71
2022/01/05 06:47:43;;;;;;;17.38;2.42;;;3.90;99.90;;;;;;5038073;28;20059;-73
2022/01/05 06:50:09;;;;;;;12.07;2.60;;;4.00;99.90;;;;;;5035063;28;20421;-74
2022/01/05 06:52:36;;;;;;;16.25;2.75;;;4.00;99.90;;;;;;5057826;28;20037;-71
2022/01/05 06:55:02;;;;;;;13.73;2.78;;;4.00;99.90;;;;;;5057884;28;20048;-72
2022/01/05 06:57:28;;;;;;;14.00;2.58;;;4.00;99.90;;;;;;5057696;28;20048;-73
2022/01/05 06:59:53;;;;;;;16.13;3.00;;;4.00;99.90;;;;;;5057228;28;20044;-74
2022/01/05 07:02:19;;;;;;;22.23;3.20;;;3.90;99.90;;;;;;5057282;28;20052;-71
2022/01/05 07:04:44;;;;;;;12.88;2.83;;;4.00;99.90;;;;;;5057128;28;20037;-74
2022/01/05 07:07:10;;;;;;;16.70;2.47;;;4.00;99.90;;;;;;5057813;28;20041;-71
2022/01/05 07:09:36;;;;;;;17.30;3.50;;;3.90;99.90;;;;;;5057113;28;20114;-70
2022/01/05 07:12:02;;;;;;;20.35;2.65;;;3.90;99.90;;;;;;5040356;28;20051;-72
2022/01/05 07:14:27;;;;;;;11.77;2.50;;;4.00;99.90;;;;;;5057121;28;20048;-71
2022/01/05 07:16:53;;;;;;;14.63;2.03;;;3.90;99.90;;;;;;5057027;28;20371;-71
2022/01/05 07:19:20;;;;;;;14.23;1.92;;;3.90;99.90;;;;;;5057259;28;20040;-70
2022/01/05 07:21:46;;;;;;;12.95;2.05;;;3.90;99.90;;;;;;5057299;28;20037;-71
2022/01/05 07:24:16;;;;;;;9.55;1.40;;;3.90;99.90;;;;;;5057081;28;20371;-71
2022/01/05 07:26:42;;;;;;;12.00;1.73;;;3.90;99.90;;;;;;5056504;28;20412;-72
2022/01/05 07:29:08;;;;;;;11.93;2.10;;;3.80;99.90;;;;;;5039792;28;20032;-71
2022/01/05 07:31:33;;;;;;;10.23;1.40;;;3.70;99.90;;;;;;5057060;28;20434;-72
2022/01/05 07:33:59;;;;;;;8.18;1.55;;;3.70;99.90;;;;;;5056980;28;20052;-71
2022/01/05 07:36:25;;;;;;;9.52;1.33;;;3.60;99.90;;;;;;5054295;28;20033;-71
2022/01/05 07:38:51;;;;;;;8.85;1.50;;;3.50;99.90;;;;;;5053248;28;20048;-70
2022/01/05 07:41:16;;;;;;;7.95;1.23;;;3.40;99.90;;;;;;5046122;28;20072;-71
2022/01/05 07:43:42;;;;;;;10.35;1.83;;;3.40;99.90;;;;;;5036591;28;20048;-72
2022/01/05 07:46:08;;;;;;;10.18;1.67;;;3.30;99.90;;;;;;5036547;28;20033;-70
2022/01/05 07:48:33;;;;;;;11.32;1.52;;;3.30;99.90;;;;;;5037018;28;20097;-70
2022/01/05 07:50:59;;;;;;;10.38;1.83;;;3.30;99.90;;;;;;5036527;28;20380;-70
2022/01/05 07:53:24;;;;;;;9.93;2.25;;;3.30;99.90;;;;;;5036656;28;20056;-70
2022/01/05 07:55:50;;;;;;;13.77;2.60;;;3.20;99.90;;;;;;5036493;28;20037;-71
2022/01/05 07:58:16;;;;;;;11.93;2.60;;;3.10;99.90;;;;;;5036329;28;20055;-70
2022/01/05 08:00:42;;;;;;;15.25;3.17;;;3.10;99.90;;;;;;5035908;28;20365;-70
2022/01/05 08:03:07;;;;;;;15.30;2.85;;;3.00;99.90;;;;;;5036940;28;20045;-70
2022/01/05 08:05:33;;;;;;;15.30;4.00;;;3.00;99.90;;;;;;5036591;28;20364;-71
2022/01/05 08:07:59;;;;;;;18.05;4.20;;;3.00;99.90;;;;;;5052584;28;20029;-71
2022/01/05 08:10:25;;;;;;;20.80;3.60;;;3.00;99.90;;;;;;5056057;28;20604;-70
2022/01/05 08:12:50;;;;;;;17.75;3.75;;;3.10;99.90;;;;;;5056160;28;20131;-70
2022/01/05 08:15:16;;;;;;;15.52;3.75;;;3.20;99.90;;;;;;5055457;28;20040;-71
2022/01/05 08:17:42;;;;;;;22.85;4.25;;;3.20;99.90;;;;;;5055853;28;20052;-71
2022/01/05 08:20:11;;;;;;;19.67;3.67;;;3.20;99.90;;;;;;5055682;28;20400;-71
2022/01/05 08:22:45;;;;;;;17.77;3.72;;;3.30;99.90;;;;;;5056205;28;20044;-71
2022/01/05 08:25:15;;;;;;;24.35;3.53;;;3.50;99.90;;;;;;5055810;28;20072;-71
2022/01/05 08:27:46;;;;;;;26.42;3.88;;;3.60;99.90;;;;;;5055494;28;20044;-71
2022/01/05 08:30:20;;;;;;;21.15;3.10;;;3.70;99.90;;;;;;5056612;28;20045;-70
2022/01/05 08:32:47;;;;;;;17.23;2.50;;;3.80;99.90;;;;;;5056049;28;20083;-70
2022/01/05 08:35:17;;;;;;;18.83;2.45;;;4.10;99.90;;;;;;5055529;28;20048;-70
2022/01/05 08:37:46;;;;;;;;;;;4.20;99.90;;;;;;5056337;28;20051;-71
2022/01/05 08:40:14;;;;;;;12.55;2.63;;;4.30;99.90;;;;;;5055478;28;19927;-70
2022/01/05 08:42:40;;;;;;;11.88;1.42;;;4.40;99.90;;;;;;5056336;28;20050;-70
2022/01/05 08:45:07;;;;;;;8.98;1.52;;;4.50;99.90;;;;;;5056262;28;20051;-70
2022/01/05 08:47:33;;;;;;;10.13;1.60;;;4.50;99.90;;;;;;5055550;28;20137;-71
2022/01/05 08:49:59;;;;;;;11.90;1.42;;;4.50;99.90;;;;;;5038754;28;20127;-71
2022/01/05 08:52:25;;;;;;;14.13;1.83;;;4.50;99.90;;;;;;5055428;28;20044;-69
2022/01/05 08:54:51;;;;;;;18.52;2.25;;;4.50;99.90;;;;;;5055206;28;20033;-71
2022/01/05 08:57:17;;;;;;;17.20;2.90;;;4.50;99.90;;;;;;5055866;28;20131;-70
2022/01/05 08:59:44;;;;;;;14.02;2.25;;;4.60;99.90;;;;;;5055473;28;20052;-70
2022/01/05 09:02:13;;;;;;;19.60;2.50;;;4.60;99.90;;;;;;5055909;28;20109;-71
2022/01/05 09:04:39;;;;;;;16.38;2.08;;;4.70;99.90;;;;;;5054483;28;20059;-70
2022/01/05 09:07:05;;;;;;;14.88;2.15;;;4.70;99.90;;;;;;5051257;28;20043;-70
2022/01/05 09:09:31;;;;;;;12.73;2.00;;;4.80;99.90;;;;;;5035299;28;20041;-70
2022/01/05 09:11:57;;;;;;;13.27;2.70;;;4.80;99.90;;;;;;5035843;28;20060;-70
2022/01/05 09:14:22;;;;;;;13.48;2.03;;;4.90;99.90;;;;;;5035528;28;20041;-70
2022/01/05 09:16:48;;;;;;;16.40;2.53;;;4.90;99.90;;;;;;5034731;28;20056;-70
2022/01/05 09:19:14;;;;;;;16.77;2.45;;;5.00;99.90;;;;;;5018850;28;20505;-71
2022/01/05 09:21:40;;;;;;;9.77;2.55;;;5.10;99.90;;;;;;5035214;28;20458;-70
2022/01/05 09:24:06;;;;;;;14.30;2.22;;;5.10;99.90;;;;;;5035107;28;20510;-72
2022/01/05 09:26:32;;;;;;;10.35;1.38;;;5.20;99.90;;;;;;5023821;28;20080;-71
2022/01/05 09:28:57;;;;;;;11.25;1.55;;;5.30;99.90;;;;;;5058573;28;20445;-72
2022/01/05 09:31:23;;;;;;;13.85;1.73;;;5.30;99.90;;;;;;5055647;28;20094;-71
2022/01/05 09:33:49;;;;;;;9.50;1.67;;;5.40;99.90;;;;;;5039135;28;20138;-70
2022/01/05 09:36:22;;;;;;;10.15;1.88;;;5.40;99.90;;;;;;5044531;28;20115;-71
2022/01/05 09:44:05;;;;;;;15.07;1.88;;;5.30;99.90;;;;;;5058910;28;20044;-70
2022/01/05 09:46:38;;;;;;;26.38;7.10;;;5.30;99.90;;;;;;5058942;28;20055;-70
2022/01/05 09:49:12;;;;;;;33.80;8.25;;;5.40;99.90;;;;;;5058106;28;20051;-70
2022/01/05 09:51:42;;;;;;;30.90;6.88;;;5.40;99.90;;;;;;5042075;28;20044;-70
2022/01/05 09:54:09;;;;;;;;;;;5.50;99.90;;;;;;5059560;28;20131;-71
2022/01/05 09:56:35;;;;;;;14.00;2.40;;;5.50;99.90;;;;;;5057790;28;19916;-71
2022/01/05 09:59:02;;;;;;;22.45;3.22;;;5.60;99.90;;;;;;5058627;28;20102;-70
2022/01/05 10:01:33;;;;;;;20.80;3.17;;;5.60;99.90;;;;;;5041580;28;20127;-72
2022/01/05 10:03:59;;;;;;;18.60;2.50;;;5.70;99.90;;;;;;5058612;28;20493;-70
2022/01/05 10:06:25;;;;;;;17.17;2.53;;;5.70;99.90;;;;;;5058665;28;20078;-70
2022/01/05 10:08:51;;;;;;;19.48;3.03;;;5.80;99.90;;;;;;5058419;28;20037;-70
2022/01/05 10:11:20;;;;;;;17.40;2.83;;;5.70;99.90;;;;;;5058700;28;20048;-72
2022/01/05 10:13:46;;;;;;;16.45;3.33;;;5.80;99.90;;;;;;5058453;28;20080;-70
2022/01/05 10:16:12;;;;;;;25.30;5.03;;;5.80;99.90;;;;;;5041226;28;20094;-70
2022/01/05 10:18:42;;;;;;;26.95;5.03;;;5.80;99.90;;;;;;5058862;28;20048;-71
2022/01/05 10:21:08;;;;;;;24.25;4.25;;;5.80;99.90;;;;;;5058408;28;20044;-70
2022/01/05 10:23:41;;;;;;;23.48;4.90;;;5.80;99.90;;;;;;5058523;28;20044;-70
2022/01/05 10:26:36;;;;;;;23.58;3.20;;;5.90;99.90;;;;;;5057477;28;20048;-71
2022/01/05 10:29:14;;;;;;;26.23;4.18;;;5.90;99.90;;;;;;5057932;28;20491;-72
2022/01/05 10:31:41;;;;;;;30.77;5.63;;;5.90;99.90;;;;;;5058577;28;20128;-72
2022/01/05 10:34:18;;;;;;;52.65;13.40;;;6.00;99.90;;;;;;5058082;28;20037;-70
2022/01/05 10:36:48;;;;;;;21.65;4.28;;;6.10;99.90;;;;;;5058006;28;20130;-71
2022/01/05 10:39:15;;;;;;;17.65;3.25;;;6.10;99.90;;;;;;5057426;28;20101;-85
2022/01/05 10:41:44;;;;;;;21.38;3.67;;;6.20;99.90;;;;;;5057976;28;20040;-71
2022/01/05 10:44:19;;;;;;;22.93;3.67;;;6.30;99.90;;;;;;5057751;28;20185;-70
2022/01/05 10:46:50;;;;;;;21.40;3.15;;;6.50;99.90;;;;;;5057744;28;20279;-70
2022/01/05 10:49:22;;;;;;;22.77;3.15;;;6.60;99.90;;;;;;5057299;28;20075;-71
2022/01/05 10:51:49;;;;;;;20.65;2.63;;;6.70;99.90;;;;;;5040843;28;20056;-71
2022/01/05 10:54:17;;;;;;;20.35;2.95;;;7.00;99.90;;;;;;5040378;28;20115;-70
2022/01/05 10:56:44;;;;;;;19.02;2.65;;;7.20;99.90;;;;;;5057451;28;20508;-71
2022/01/05 10:59:11;;;;;;;25.63;3.20;;;7.10;99.90;;;;;;5057321;28;20060;-70
2022/01/05 11:01:38;;;;;;;20.50;3.08;;;7.00;99.90;;;;;;5057354;28;20040;-71
2022/01/05 11:04:21;;;;;;;16.05;2.53;;;6.80;99.90;;;;;;5057102;28;20523;-71
2022/01/05 11:07:03;;;;;;;22.15;3.30;;;6.80;99.90;;;;;;5056963;28;20153;-71
2022/01/05 11:09:30;;;;;;;21.15;3.15;;;6.80;99.90;;;;;;5057420;28;20041;-71
2022/01/05 11:11:57;;;;;;;18.73;3.53;;;6.80;99.90;;;;;;5057336;28;20144;-71
2022/01/05 11:14:36;;;;;;;23.02;3.40;;;6.80;99.90;;;;;;5053396;28;20045;-71
2022/01/05 11:17:04;;;;;;;14.97;3.07;;;6.80;99.90;;;;;;5049373;28;20132;-71
2022/01/05 11:19:37;;;;;;;18.35;2.95;;;6.80;99.90;;;;;;5053461;28;20098;-71
2022/01/05 11:22:08;;;;;;;16.48;2.60;;;6.90;99.90;;;;;;5036923;28;20472;-70
2022/01/05 11:24:51;;;;;;;19.65;2.95;;;7.00;99.90;;;;;;5037225;28;20048;-72
2022/01/05 11:27:20;;;;;;;20.75;3.00;;;7.10;99.90;;;;;;5037348;28;20123;-71
2022/01/05 11:29:47;;;;;;;18.75;2.47;;;7.10;99.90;;;;;;5036859;28;20557;-71
2022/01/05 11:32:20;;;;;;;22.83;3.55;;;7.20;99.90;;;;;;5053799;28;20052;-72
2022/01/05 11:34:56;;;;;;;19.98;2.53;;;7.40;99.90;;;;;;5056186;28;20123;-71
2022/01/05 11:37:21;;;;;;;26.55;3.13;;;7.70;99.90;;;;;;5053598;28;20053;-71
2022/01/05 11:39:51;;;;;;;16.85;2.83;;;8.10;99.90;;;;;;5036626;28;20056;-71
2022/01/05 11:42:28;;;;;;;23.10;2.92;;;8.30;99.90;;;;;;5036762;28;20479;-70
2022/01/05 11:44:57;;;;;;;18.73;3.72;;;8.40;99.90;;;;;;5020380;28;20131;-71
2022/01/05 11:47:24;;;;;;;17.27;2.83;;;8.60;99.90;;;;;;5053485;28;20098;-71
2022/01/05 11:49:52;;;;;;;16.48;3.63;;;8.60;99.90;;;;;;5035579;28;20047;-71
2022/01/05 11:52:18;;;;;;;23.27;5.22;;;8.60;99.90;;;;;;5036394;28;20106;-72
2022/01/05 11:55:03;;;;;;;19.67;7.18;;;8.60;99.90;;;;;;5020110;28;20044;-71
2022/01/05 11:57:28;;;;;;;17.85;3.55;;;8.50;99.90;;;;;;5036509;28;20463;-72
2022/01/05 12:00:15;;;;;;;21.13;4.40;;;8.30;99.90;;;;;;5036175;28;20040;-83
2022/01/05 12:02:41;;;;;;;15.07;4.07;;;7.90;99.90;;;;;;5055437;28;20057;-72
2022/01/05 12:05:07;;;;;;;22.23;4.68;;;7.80;99.90;;;;;;5055429;28;20047;-71
2022/01/05 12:07:46;;;;;;;20.90;6.22;;;7.70;99.90;;;;;;5054865;28;20036;-71
2022/01/05 12:10:23;;;;;;;18.75;3.10;;;7.80;99.90;;;;;;5054386;28;20037;-72
2022/01/05 12:13:02;;;;;;;18.20;2.50;;;7.70;99.90;;;;;;5055206;28;20045;-71
2022/01/05 12:15:53;;;;;;;18.27;2.55;;;7.70;99.90;;;;;;5054636;28;20052;-70
2022/01/05 12:18:27;;;;;;;18.27;4.53;;;7.60;99.90;;;;;;5037536;28;20056;-70
2022/01/05 12:20:53;;;;;;;12.38;2.13;;;7.60;99.90;;;;;;5037887;28;20070;-70
2022/01/05 12:23:24;;;;;;;21.27;6.72;;;7.80;99.90;;;;;;5054524;28;20043;-72
2022/01/05 12:26:18;;;;;;;16.70;3.10;;;8.00;99.90;;;;;;5054275;28;20036;-71
2022/01/05 12:28:57;;;;;;;13.50;1.75;;;8.00;99.90;;;;;;5050487;28;20091;-70
2022/01/05 12:31:48;;;;;;;20.13;4.75;;;8.20;99.90;;;;;;5054752;28;20051;-70
2022/01/05 12:34:34;;;;;;;25.30;8.45;;;8.40;99.90;;;;;;5038447;28;20093;-71
2022/01/05 12:37:00;;;;;;;27.27;8.20;;;8.50;99.90;;;;;;5054710;28;20084;-71
2022/01/05 12:39:48;;;;;;;23.98;8.35;;;8.50;99.90;;;;;;5037914;28;20079;-71
2022/01/05 12:42:32;;;;;;;15.77;2.13;;;8.40;99.90;;;;;;5054947;28;20082;-71
2022/01/05 12:44:58;;;;;;;16.77;4.82;;;8.30;99.90;;;;;;5054621;28;20382;-72
2022/01/05 12:47:35;;;;;;;13.60;2.65;;;8.30;99.90;;;;;;5054496;28;20541;-72
2022/01/05 12:50:16;;;;;;;12.75;1.70;;;8.20;99.90;;;;;;5037315;28;21551;-71
2022/01/05 12:52:42;;;;;;;18.80;2.92;;;8.00;99.90;;;;;;5054790;28;20046;-71
2022/01/05 12:55:08;;;;;;;15.25;2.95;;;8.10;99.90;;;;;;5054505;28;20040;-71